createdAt,value
2023-05-12T00:00:56.251Z,5.00
2023-05-12T00:03:25.453Z,4.50
2023-05-12T00:05:54.679Z,4.20
2023-05-12T00:08:23.829Z,4.13
2023-05-12T00:10:54.337Z,4.67
2023-05-12T00:13:24.073Z,4.77
2023-05-12T00:15:55.431Z,4.37
2023-05-12T00:18:24.998Z,4.37
2023-05-12T00:20:55.163Z,4.37
2023-05-12T00:23:24.476Z,4.37
2023-05-12T00:25:54.884Z,4.53
2023-05-12T00:28:23.951Z,4.07
2023-05-12T00:30:53.178Z,4.27
2023-05-12T00:33:22.300Z,4.70
2023-05-12T00:35:51.350Z,3.93
2023-05-12T00:38:20.422Z,4.30
2023-05-12T00:40:49.577Z,4.20
2023-05-12T00:43:20.016Z,4.10
2023-05-12T00:45:49.567Z,3.90
2023-05-12T00:48:19.218Z,4.03
2023-05-12T00:50:48.460Z,4.03
2023-05-12T00:53:17.650Z,3.97
2023-05-12T00:55:47.459Z,4.13
2023-05-12T00:58:16.835Z,4.20
2023-05-12T01:00:47.410Z,4.10
2023-05-12T01:03:17.095Z,4.47
2023-05-12T01:05:50.608Z,4.00
2023-05-12T01:08:21.827Z,4.03
2023-05-12T01:10:51.128Z,3.80
2023-05-12T01:13:21.568Z,3.93
2023-05-12T01:15:54.901Z,3.87
2023-05-12T01:18:25.345Z,4.00
2023-05-12T01:20:56.362Z,4.10
2023-05-12T01:23:34.474Z,3.83
2023-05-12T01:26:07.746Z,4.13
2023-05-12T01:28:38.746Z,3.97
2023-05-12T01:31:09.516Z,3.83
2023-05-12T01:33:40.803Z,3.50
2023-05-12T01:36:10.436Z,3.30
2023-05-12T01:38:39.735Z,3.43
2023-05-12T01:41:11.327Z,3.70
2023-05-12T01:43:40.684Z,3.73
2023-05-12T01:46:10.878Z,3.43
2023-05-12T01:48:41.566Z,3.50
2023-05-12T01:51:11.481Z,3.60
2023-05-12T01:53:40.612Z,3.67
2023-05-12T01:56:11.047Z,3.03
2023-05-12T01:58:40.120Z,3.43
2023-05-12T02:01:09.247Z,3.63
2023-05-12T02:03:38.884Z,3.80
2023-05-12T02:06:13.486Z,3.40
2023-05-12T02:08:42.695Z,3.37
2023-05-12T02:11:13.222Z,3.47
2023-05-12T02:13:42.319Z,3.03
2023-05-12T02:16:11.604Z,3.47
2023-05-12T02:18:40.856Z,3.20
2023-05-12T02:21:10.033Z,3.17
2023-05-12T02:23:39.163Z,3.83
2023-05-12T02:26:08.285Z,3.47
2023-05-12T02:28:39.775Z,3.10
2023-05-12T02:31:08.984Z,3.20
2023-05-12T02:33:38.160Z,3.23
2023-05-12T02:36:08.317Z,3.70
2023-05-12T02:38:37.424Z,3.67
2023-05-12T02:41:06.734Z,3.23
2023-05-12T02:43:36.311Z,3.27
2023-05-12T02:46:07.412Z,3.50
2023-05-12T02:48:36.933Z,3.20
2023-05-12T02:51:06.544Z,3.57
2023-05-12T02:53:35.647Z,3.20
2023-05-12T02:56:04.868Z,3.53
2023-05-12T02:58:35.162Z,3.23
2023-05-12T03:01:10.763Z,3.00
2023-05-12T03:03:42.673Z,3.20
2023-05-12T03:06:12.161Z,2.93
2023-05-12T03:08:41.383Z,3.30
2023-05-12T03:11:10.578Z,2.87
2023-05-12T03:13:39.719Z,3.27
2023-05-12T03:16:09.560Z,2.97
2023-05-12T03:18:38.632Z,2.87
2023-05-12T03:21:09.853Z,3.60
2023-05-12T03:23:38.966Z,3.40
2023-05-12T03:26:08.079Z,3.60
2023-05-12T03:28:37.619Z,3.23
2023-05-12T03:31:06.945Z,3.50
2023-05-12T03:33:36.049Z,3.27
2023-05-12T03:36:05.797Z,3.57
2023-05-12T03:38:36.414Z,3.43
2023-05-12T03:41:06.192Z,3.30
2023-05-12T03:43:36.252Z,3.10
2023-05-12T03:46:06.032Z,3.20
2023-05-12T03:48:35.366Z,3.30
2023-05-12T03:51:04.891Z,3.17
2023-05-12T03:53:35.456Z,3.20
2023-05-12T03:56:08.035Z,3.40
2023-05-12T03:58:37.151Z,3.07
2023-05-12T04:01:07.134Z,3.57
2023-05-12T04:03:36.575Z,3.53
2023-05-12T04:06:06.203Z,3.27
2023-05-12T04:08:36.695Z,2.63
2023-05-12T04:11:05.904Z,3.20
2023-05-12T04:13:35.000Z,3.30
2023-05-12T04:16:04.386Z,3.60
2023-05-12T04:18:33.530Z,3.43
2023-05-12T04:21:02.646Z,3.03
2023-05-12T04:23:31.710Z,3.43
2023-05-12T04:26:05.112Z,3.07
2023-05-12T04:28:34.253Z,3.30
2023-05-12T04:31:06.397Z,3.23
2023-05-12T04:33:36.927Z,3.07
2023-05-12T04:36:07.477Z,3.13
2023-05-12T04:38:37.594Z,3.00
2023-05-12T04:41:08.101Z,2.87
2023-05-12T04:46:09.566Z,3.13
2023-05-12T04:48:41.896Z,3.47
2023-05-12T04:51:10.993Z,3.03
2023-05-12T04:53:40.052Z,3.20
2023-05-12T04:56:10.574Z,3.10
2023-05-12T04:58:41.090Z,3.07
2023-05-12T05:01:12.261Z,3.00
2023-05-12T05:03:42.055Z,3.10
2023-05-12T05:06:11.683Z,3.10
2023-05-12T05:08:41.721Z,3.10
2023-05-12T05:11:12.296Z,3.20
2023-05-12T05:13:41.527Z,3.40
2023-05-12T05:16:10.802Z,3.33
2023-05-12T05:18:42.498Z,3.13
2023-05-12T05:21:11.815Z,2.95
2023-05-12T05:23:41.689Z,3.10
2023-05-12T05:26:13.064Z,2.75
2023-05-12T05:28:42.439Z,2.93
2023-05-12T05:31:17.717Z,3.00
2023-05-12T05:33:46.912Z,2.97
2023-05-12T05:36:16.407Z,2.53
2023-05-12T05:38:45.537Z,3.00
2023-05-12T05:41:15.929Z,3.00
2023-05-12T05:43:45.117Z,2.97
2023-05-12T05:46:15.225Z,3.38
2023-05-12T05:48:44.427Z,2.78
2023-05-12T05:51:15.005Z,3.13
2023-05-12T05:53:44.270Z,2.88
2023-05-12T05:56:15.586Z,2.92
2023-05-12T05:58:44.785Z,2.53
2023-05-12T06:01:15.446Z,2.85
2023-05-12T06:03:45.145Z,2.75
2023-05-12T06:06:14.472Z,2.58
2023-05-12T06:08:43.873Z,2.65
2023-05-12T06:11:17.153Z,2.67
2023-05-12T06:13:46.918Z,2.42
2023-05-12T06:16:16.028Z,2.63
2023-05-12T06:18:45.201Z,2.58
2023-05-12T06:21:14.853Z,2.95
2023-05-12T06:23:43.990Z,2.88
2023-05-12T06:26:17.191Z,2.40
2023-05-12T06:28:46.422Z,2.42
2023-05-12T06:31:15.715Z,2.58
2023-05-12T06:33:44.933Z,2.40
2023-05-12T06:36:15.004Z,2.67
2023-05-12T06:38:44.161Z,2.60
2023-05-12T06:41:16.893Z,2.35
2023-05-12T06:43:46.120Z,2.50
2023-05-12T06:46:16.105Z,2.50
2023-05-12T06:48:45.281Z,2.80
2023-05-12T06:51:14.555Z,2.63
2023-05-12T06:53:43.619Z,2.50
2023-05-12T06:56:16.839Z,3.08
2023-05-12T06:58:47.975Z,2.92
2023-05-12T07:01:17.205Z,3.15
2023-05-12T07:03:46.456Z,2.90
2023-05-12T07:06:15.668Z,3.17
2023-05-12T07:08:44.831Z,2.95
2023-05-12T07:11:19.872Z,2.95
2023-05-12T07:13:51.374Z,2.60
2023-05-12T07:16:21.348Z,3.00
2023-05-12T07:18:50.519Z,2.53
2023-05-12T07:21:19.766Z,2.60
2023-05-12T07:23:48.877Z,2.47
2023-05-12T07:26:18.621Z,2.20
2023-05-12T07:28:49.174Z,2.70
2023-05-12T07:31:18.307Z,2.05
2023-05-12T07:33:47.473Z,2.50
2023-05-12T07:36:16.530Z,2.10
2023-05-12T07:38:45.667Z,2.42
2023-05-12T07:41:15.383Z,2.40
2023-05-12T07:43:44.503Z,2.15
2023-05-12T07:46:15.037Z,2.53
2023-05-12T07:48:44.154Z,2.10
2023-05-12T07:51:13.247Z,2.50
2023-05-12T07:53:42.329Z,2.53
2023-05-12T07:56:11.413Z,1.88
2023-05-12T07:58:40.480Z,2.30
2023-05-12T08:01:10.226Z,2.17
2023-05-12T08:03:41.096Z,2.55
2023-05-12T08:06:10.582Z,2.25
2023-05-12T08:08:39.654Z,2.28
2023-05-12T08:11:08.695Z,2.60
2023-05-12T08:13:38.520Z,2.55
2023-05-12T08:16:07.658Z,2.67
2023-05-12T08:18:36.839Z,2.42
2023-05-12T08:21:07.381Z,2.50
2023-05-12T08:23:37.658Z,2.47
2023-05-12T08:26:06.921Z,2.13
2023-05-12T08:28:36.039Z,2.35
2023-05-12T08:31:05.429Z,2.20
2023-05-12T08:33:36.626Z,2.58
2023-05-12T08:36:07.542Z,2.28
2023-05-12T08:38:36.696Z,2.15
2023-05-12T08:41:13.984Z,2.28
2023-05-12T08:43:46.113Z,2.13
2023-05-12T08:46:15.600Z,2.47
2023-05-12T08:48:48.117Z,2.13
2023-05-12T08:51:20.242Z,2.03
2023-05-12T08:53:51.095Z,1.80
2023-05-12T08:58:56.440Z,2.72
2023-05-12T09:01:27.007Z,1.50
2023-05-12T09:03:56.374Z,2.47
2023-05-12T09:06:27.028Z,2.38
2023-05-12T09:08:56.144Z,1.88
2023-05-12T09:11:25.385Z,1.98
2023-05-12T09:14:02.811Z,1.90
2023-05-12T09:16:34.058Z,2.03
2023-05-12T09:19:06.721Z,1.98
2023-05-12T09:21:37.596Z,1.88
2023-05-12T09:24:08.842Z,2.03
2023-05-12T09:26:48.116Z,1.90
2023-05-12T09:29:27.789Z,1.75
2023-05-12T09:31:59.500Z,1.58
2023-05-12T09:34:30.591Z,1.70
2023-05-12T09:37:03.529Z,1.83
2023-05-12T09:39:33.182Z,1.83
2023-05-12T09:42:02.504Z,1.67
2023-05-12T09:44:33.345Z,1.65
2023-05-12T09:47:08.047Z,1.80
2023-05-12T09:49:37.176Z,1.70
2023-05-12T09:52:07.957Z,1.90
2023-05-12T09:54:40.553Z,1.90
2023-05-12T09:57:12.487Z,1.90
2023-05-12T09:59:43.886Z,1.65
2023-05-12T10:02:16.378Z,1.90
2023-05-12T10:04:48.732Z,1.58
2023-05-12T10:07:23.945Z,2.03
2023-05-12T10:09:54.467Z,1.90
2023-05-12T10:12:24.035Z,2.13
2023-05-12T10:14:54.084Z,2.00
2023-05-12T10:17:24.296Z,2.13
2023-05-12T10:19:55.549Z,2.25
2023-05-12T10:22:27.684Z,1.88
2023-05-12T10:24:58.095Z,2.15
2023-05-12T10:27:27.906Z,1.77
2023-05-12T10:29:57.347Z,1.65
2023-05-12T10:32:27.019Z,1.90
2023-05-12T10:34:56.395Z,2.17
2023-05-12T10:37:29.908Z,1.95
2023-05-12T10:40:01.033Z,2.15
2023-05-12T10:42:37.978Z,2.10
2023-05-12T10:45:18.146Z,2.00
2023-05-12T10:47:48.115Z,1.90
2023-05-12T10:50:28.402Z,2.10
2023-05-12T10:52:59.084Z,2.70
2023-05-12T10:55:36.546Z,1.80
2023-05-12T10:58:08.587Z,2.47
2023-05-12T11:00:50.853Z,2.00
2023-05-12T11:03:27.164Z,1.80
2023-05-12T11:06:07.258Z,1.85
2023-05-12T11:08:39.785Z,1.92
2023-05-12T11:11:09.270Z,1.40
2023-05-12T11:13:38.621Z,1.95
2023-05-12T11:16:12.860Z,1.90
2023-05-12T11:18:42.116Z,2.00
2023-05-12T11:21:12.779Z,1.75
2023-05-12T11:23:43.179Z,1.73
2023-05-12T11:26:19.197Z,1.50
2023-05-12T11:28:48.269Z,1.65
2023-05-12T11:31:20.702Z,1.42
2023-05-12T11:33:58.543Z,1.60
2023-05-12T11:36:38.508Z,1.63
2023-05-12T11:39:13.866Z,1.50
2023-05-12T11:41:43.020Z,1.20
2023-05-12T11:44:16.707Z,1.40
2023-05-12T11:46:56.663Z,1.52
2023-05-12T11:49:25.918Z,1.60
2023-05-12T11:51:56.212Z,1.38
2023-05-12T11:54:28.770Z,1.65
2023-05-12T11:56:59.031Z,1.50
2023-05-12T11:59:29.766Z,1.80
2023-05-12T12:01:59.541Z,1.50
2023-05-12T12:04:36.351Z,1.83
2023-05-12T12:07:06.316Z,1.45
2023-05-12T12:09:38.240Z,1.60
2023-05-12T12:12:08.794Z,1.50
2023-05-12T12:14:41.334Z,1.67
2023-05-12T12:17:10.367Z,1.38
2023-05-12T12:19:39.585Z,1.70
2023-05-12T12:22:08.671Z,1.63
2023-05-12T12:24:39.065Z,1.40
2023-05-12T12:27:08.120Z,1.50
2023-05-12T12:29:37.201Z,1.42
2023-05-12T12:32:06.811Z,1.40
2023-05-12T12:34:36.336Z,2.00
2023-05-12T12:37:06.482Z,1.45
2023-05-12T12:39:35.661Z,1.42
2023-05-12T12:42:06.960Z,2.10
2023-05-12T12:44:36.108Z,1.20
2023-05-12T12:47:05.665Z,1.58
2023-05-12T12:49:34.789Z,1.60
2023-05-12T12:52:03.873Z,2.40
2023-05-12T12:54:33.132Z,1.60
2023-05-12T12:57:02.363Z,1.55
2023-05-12T12:59:33.079Z,1.98
2023-05-12T13:02:02.576Z,1.48
2023-05-12T13:04:31.883Z,1.50
2023-05-12T13:07:00.979Z,1.45
2023-05-12T13:09:30.121Z,1.60
2023-05-12T13:11:59.571Z,1.90
2023-05-12T13:14:28.807Z,1.40
2023-05-12T13:16:59.371Z,1.60
2023-05-12T13:19:28.500Z,1.42
2023-05-12T13:21:57.588Z,1.65
2023-05-12T13:24:26.743Z,1.90
2023-05-12T13:26:56.542Z,1.75
2023-05-12T13:29:25.709Z,1.77
2023-05-12T13:31:54.845Z,1.80
2023-05-12T13:34:25.785Z,1.27
2023-05-12T13:36:54.895Z,1.55
2023-05-12T13:39:23.964Z,1.85
2023-05-12T13:41:53.117Z,1.52
2023-05-12T13:44:22.229Z,1.85
2023-05-12T13:46:51.448Z,1.50
2023-05-12T13:49:20.737Z,1.63
2023-05-12T13:51:51.188Z,1.60
2023-05-12T13:54:20.292Z,2.00
2023-05-12T13:56:49.403Z,1.58
2023-05-12T13:59:18.521Z,1.83
2023-05-12T14:01:47.737Z,2.45
2023-05-12T14:04:16.953Z,1.60
2023-05-12T14:06:46.805Z,1.58
2023-05-12T14:09:17.509Z,1.60
2023-05-12T14:11:46.632Z,1.70
2023-05-12T14:14:15.747Z,1.98
2023-05-12T14:16:44.893Z,1.50
2023-05-12T14:19:14.151Z,1.67
2023-05-12T14:21:43.283Z,1.35
2023-05-12T14:24:12.342Z,1.60
2023-05-12T14:26:42.821Z,1.75
2023-05-12T14:29:11.958Z,2.10
2023-05-12T14:31:41.272Z,1.77
2023-05-12T14:34:11.784Z,1.73
2023-05-12T14:36:40.892Z,1.77
2023-05-12T14:39:10.029Z,1.88
2023-05-12T14:41:39.259Z,1.83
2023-05-12T14:44:09.670Z,1.98
2023-05-12T14:46:39.046Z,1.70
2023-05-12T14:49:11.084Z,1.75
2023-05-12T14:51:40.288Z,1.83
2023-05-12T14:54:18.413Z,1.88
2023-05-12T14:56:53.715Z,2.10
2023-05-12T14:59:24.172Z,1.85
2023-05-12T15:01:53.349Z,1.80
2023-05-12T15:04:22.543Z,1.77
2023-05-12T15:06:51.682Z,1.73
2023-05-12T15:09:20.908Z,1.75
2023-05-12T15:11:51.438Z,1.83
2023-05-12T15:14:20.571Z,2.20
2023-05-12T15:16:50.995Z,1.70
2023-05-12T15:19:21.346Z,2.00
2023-05-12T15:21:50.521Z,2.40
2023-05-12T15:24:19.607Z,2.00
2023-05-12T15:26:48.651Z,2.25
2023-05-12T15:29:17.731Z,1.70
2023-05-12T15:31:48.680Z,1.88
2023-05-12T15:34:19.228Z,1.90
2023-05-12T15:36:48.827Z,1.80
2023-05-12T15:39:17.946Z,1.73
2023-05-12T15:41:47.072Z,2.10
2023-05-12T15:44:16.729Z,2.10
2023-05-12T15:46:45.873Z,2.03
2023-05-12T15:49:14.941Z,1.77
2023-05-12T15:51:45.517Z,2.20
2023-05-12T15:54:14.608Z,1.98
2023-05-12T15:56:43.836Z,1.92
2023-05-12T15:59:13.033Z,2.13
2023-05-12T16:01:42.196Z,2.08
2023-05-12T16:04:11.277Z,1.92
2023-05-12T16:06:40.575Z,2.20
2023-05-12T16:09:11.064Z,1.90
2023-05-12T16:11:40.582Z,2.00
2023-05-12T16:14:09.831Z,2.50
2023-05-12T16:16:42.908Z,2.20
2023-05-12T16:19:12.085Z,2.45
2023-05-12T16:21:42.451Z,2.28
2023-05-12T16:24:13.155Z,1.83
2023-05-12T16:26:42.444Z,1.85
2023-05-12T16:29:11.613Z,2.58
2023-05-12T16:31:42.546Z,2.00
2023-05-12T16:34:11.754Z,1.85
2023-05-12T16:36:41.228Z,1.95
2023-05-12T16:39:10.895Z,2.33
2023-05-12T16:41:41.343Z,2.15
2023-05-12T16:44:10.417Z,2.22
2023-05-12T16:46:41.610Z,2.22
2023-05-12T16:49:10.916Z,2.17
2023-05-12T16:51:40.455Z,1.95
2023-05-12T16:54:09.944Z,2.25
2023-05-12T16:56:40.550Z,2.00
2023-05-12T16:59:09.709Z,2.15
2023-05-12T17:01:39.526Z,2.10
2023-05-12T17:04:11.714Z,1.90
2023-05-12T17:06:40.919Z,1.85
2023-05-12T17:09:10.186Z,2.20
2023-05-12T17:11:40.764Z,2.05
2023-05-12T17:14:10.128Z,1.90
2023-05-12T17:16:39.662Z,2.00
2023-05-12T17:21:41.389Z,1.80
2023-05-12T17:24:11.196Z,1.92
2023-05-12T17:26:41.843Z,1.58
2023-05-12T17:29:10.914Z,2.08
2023-05-12T17:31:40.377Z,2.08
2023-05-12T17:34:09.537Z,2.22
2023-05-12T17:36:38.609Z,1.75
2023-05-12T17:39:07.685Z,2.45
2023-05-12T17:41:36.744Z,2.15
2023-05-12T17:44:07.270Z,3.10
2023-05-12T17:46:36.389Z,2.00
2023-05-12T17:49:05.577Z,2.00
2023-05-12T17:51:35.402Z,2.10
2023-05-12T17:54:04.701Z,3.28
2023-05-12T17:56:33.974Z,2.83
2023-05-12T17:59:03.620Z,2.58
2023-05-12T18:01:34.279Z,2.35
2023-05-12T18:04:03.606Z,2.72
2023-05-12T18:06:33.136Z,2.70
2023-05-12T18:09:02.695Z,2.60
2023-05-12T18:11:31.817Z,2.20
2023-05-12T18:14:02.501Z,2.10
2023-05-12T18:16:33.617Z,3.25
2023-05-12T18:19:03.520Z,3.20
2023-05-12T18:21:32.741Z,2.60
2023-05-12T18:24:01.881Z,3.00
2023-05-12T18:26:31.573Z,2.35
2023-05-12T18:29:00.881Z,3.25
2023-05-12T18:31:30.372Z,3.33
2023-05-12T18:34:00.875Z,2.80
2023-05-12T18:36:30.085Z,2.80
2023-05-12T18:38:59.112Z,3.15
2023-05-12T18:41:28.441Z,3.72
2023-05-12T18:43:57.585Z,2.88
2023-05-12T18:46:26.757Z,2.85
2023-05-12T18:48:55.921Z,2.35
2023-05-12T18:51:26.517Z,2.47
2023-05-12T18:53:56.399Z,3.00
2023-05-12T18:56:25.616Z,2.72
2023-05-12T18:58:54.733Z,3.17
2023-05-12T19:01:24.306Z,2.40
2023-05-12T19:03:53.558Z,2.75
2023-05-12T19:06:22.615Z,3.00
2023-05-12T19:08:53.204Z,3.33
2023-05-12T19:11:22.457Z,3.42
2023-05-12T19:13:52.368Z,2.97
2023-05-12T19:16:23.629Z,2.70
2023-05-12T19:18:52.875Z,3.50
2023-05-12T19:21:22.093Z,2.95
2023-05-12T19:23:52.582Z,3.08
2023-05-12T19:26:21.711Z,2.78
2023-05-12T19:28:50.965Z,2.72
2023-05-12T19:31:20.171Z,2.90
2023-05-12T19:33:49.309Z,3.13
2023-05-12T19:36:18.472Z,2.92
2023-05-12T19:38:47.704Z,3.42
2023-05-12T19:41:18.214Z,2.95
2023-05-12T19:43:47.311Z,2.80
2023-05-12T19:46:16.615Z,2.85
2023-05-12T19:48:46.083Z,3.00
2023-05-12T19:51:15.357Z,3.33
2023-05-12T19:53:44.670Z,3.42
2023-05-12T19:56:13.738Z,3.60
2023-05-12T19:58:44.397Z,3.17
2023-05-12T20:01:13.480Z,3.20
2023-05-12T20:03:42.826Z,3.35
2023-05-12T20:06:12.403Z,3.00
2023-05-12T20:08:41.584Z,3.38
2023-05-12T20:11:10.854Z,3.03
2023-05-12T20:13:39.953Z,3.13
2023-05-12T20:16:10.944Z,3.30
2023-05-12T20:18:40.347Z,3.30
2023-05-12T20:21:09.465Z,3.65
2023-05-12T20:23:38.719Z,3.40
2023-05-12T20:26:09.946Z,3.30
2023-05-12T20:28:39.126Z,4.03
2023-05-12T20:31:10.032Z,3.50
2023-05-12T20:33:39.191Z,3.53
2023-05-12T20:36:08.831Z,3.37
2023-05-12T20:38:37.992Z,3.33
2023-05-12T20:41:07.700Z,3.33
2023-05-12T20:43:37.025Z,3.80
2023-05-12T20:46:06.603Z,3.50
2023-05-12T20:48:37.145Z,3.23
2023-05-12T20:51:12.912Z,4.30
2023-05-12T20:53:42.214Z,3.77
2023-05-12T20:56:12.938Z,3.83
2023-05-12T20:58:42.220Z,3.47
2023-05-12T21:01:11.372Z,3.87
2023-05-12T21:03:42.081Z,3.80
2023-05-12T21:06:12.094Z,4.00
2023-05-12T21:08:41.252Z,3.90
2023-05-12T21:11:17.286Z,3.73
2023-05-12T21:13:47.062Z,4.00
2023-05-12T21:16:16.362Z,3.93
2023-05-12T21:18:46.909Z,4.50
2023-05-12T21:21:16.167Z,4.00
2023-05-12T21:23:45.249Z,4.07
2023-05-12T21:26:14.424Z,4.03
2023-05-12T21:28:43.589Z,4.20
2023-05-12T21:31:12.731Z,4.10
2023-05-12T21:33:41.883Z,4.27
2023-05-12T21:36:12.469Z,3.63
2023-05-12T21:38:41.563Z,3.63
2023-05-12T21:41:10.649Z,3.67
2023-05-12T21:43:39.679Z,3.97
2023-05-12T21:46:09.061Z,4.10
2023-05-12T21:48:38.173Z,3.90
2023-05-12T21:51:07.437Z,4.43
2023-05-12T21:53:37.932Z,4.00
2023-05-12T21:56:07.944Z,4.20
2023-05-12T21:58:37.124Z,4.00
2023-05-12T22:01:06.269Z,4.47
2023-05-12T22:03:35.411Z,4.83
2023-05-12T22:06:04.751Z,4.27
2023-05-12T22:08:33.841Z,4.17
2023-05-12T22:11:04.654Z,4.20
2023-05-12T22:13:33.797Z,4.10
2023-05-12T22:16:03.403Z,4.27
2023-05-12T22:18:33.315Z,3.87
2023-05-12T22:21:02.475Z,4.27
2023-05-12T22:23:31.793Z,4.73
2023-05-12T22:26:01.672Z,4.30
2023-05-12T22:28:32.204Z,3.93
2023-05-12T22:31:01.437Z,3.80
2023-05-12T22:33:31.017Z,4.60
2023-05-12T22:36:00.761Z,4.37
2023-05-12T22:38:30.107Z,4.90
2023-05-12T22:40:59.227Z,4.03
2023-05-12T22:43:28.422Z,4.20
2023-05-12T22:45:58.935Z,4.53
2023-05-12T22:48:28.627Z,4.33
2023-05-12T22:50:58.596Z,4.20
2023-05-12T22:53:27.665Z,4.30
2023-05-12T22:55:56.725Z,4.97
2023-05-12T22:58:25.820Z,4.80
2023-05-12T23:00:54.951Z,4.73
2023-05-12T23:03:25.537Z,4.90
2023-05-12T23:05:54.719Z,4.93
2023-05-12T23:08:23.744Z,4.33
2023-05-12T23:10:52.819Z,4.83
2023-05-12T23:13:22.989Z,4.53
2023-05-12T23:15:52.049Z,4.40
2023-05-12T23:18:21.192Z,4.70
2023-05-12T23:20:51.667Z,4.47
2023-05-12T23:23:20.723Z,4.50
2023-05-12T23:25:50.625Z,4.20
2023-05-12T23:28:19.737Z,4.97
2023-05-12T23:30:48.765Z,4.57
2023-05-12T23:33:18.060Z,5.43
2023-05-12T23:35:47.301Z,5.17
2023-05-12T23:38:17.712Z,5.07
2023-05-12T23:40:47.045Z,4.73
2023-05-12T23:43:16.090Z,4.87
2023-05-12T23:45:46.137Z,4.93
2023-05-12T23:48:15.187Z,4.73
2023-05-12T23:50:44.311Z,5.03
2023-05-12T23:53:13.399Z,4.70
2023-05-12T23:55:43.876Z,4.77
2023-05-12T23:58:12.924Z,4.57
